createdAt,value
2022-10-03T00:04:16.861Z,102342.38
2022-10-03T00:09:29.021Z,102335.88
2022-10-03T00:14:40.377Z,102338.69
2022-10-03T00:20:04.163Z,102336.00
2022-10-03T00:25:21.504Z,102334.31
2022-10-03T00:30:24.830Z,102331.47
2022-10-03T00:35:59.193Z,102337.84
2022-10-03T00:41:27.268Z,102335.28
2022-10-03T00:46:37.646Z,102347.59
2022-10-03T00:52:00.690Z,102338.84
2022-10-03T00:57:24.052Z,102338.69
2022-10-03T01:02:43.040Z,102336.16
2022-10-03T01:08:12.261Z,102344.19
2022-10-03T01:13:32.821Z,102345.91
2022-10-03T01:18:49.720Z,102346.88
2022-10-03T01:24:13.434Z,102348.69
2022-10-03T01:30:06.552Z,102338.09
2022-10-03T01:35:30.705Z,102328.22
2022-10-03T01:40:40.843Z,102324.69
2022-10-03T01:46:19.920Z,102328.22
2022-10-03T01:51:27.840Z,102318.34
2022-10-03T01:56:54.341Z,102315.66
2022-10-03T02:02:29.798Z,102298.72
2022-10-03T02:07:48.580Z,102304.06
2022-10-03T02:13:17.890Z,102305.78
2022-10-03T02:18:35.669Z,102308.59
2022-10-03T02:23:44.066Z,102293.34
2022-10-03T02:29:04.313Z,102292.50
2022-10-03T02:34:32.340Z,102296.16
2022-10-03T02:39:50.646Z,102295.19
2022-10-03T02:45:12.340Z,102292.50
2022-10-03T02:50:32.732Z,102288.22
2022-10-03T02:56:28.297Z,102276.50
2022-10-03T03:01:30.219Z,102273.84
2022-10-03T03:07:19.959Z,102283.72
2022-10-03T03:12:40.499Z,102277.38
2022-10-03T03:18:13.035Z,102280.06
2022-10-03T03:23:44.322Z,102275.53
2022-10-03T03:28:55.841Z,102281.88
2022-10-03T03:34:22.410Z,102282.72
2022-10-03T03:39:44.180Z,102285.69
2022-10-03T03:44:54.697Z,102286.38
2022-10-03T03:50:28.348Z,102280.16
2022-10-03T03:55:40.886Z,102274.09
2022-10-03T04:01:24.119Z,102266.75
2022-10-03T04:06:48.123Z,102264.94
2022-10-03T04:12:27.345Z,102267.78
2022-10-03T04:17:59.810Z,102259.72
2022-10-03T04:23:30.040Z,102250.81
2022-10-03T04:29:03.184Z,102239.25
2022-10-03T04:34:26.813Z,102230.22
2022-10-03T04:39:49.981Z,102226.81
2022-10-03T04:45:14.363Z,102223.25
2022-10-03T04:50:25.489Z,102216.06
2022-10-03T04:55:48.472Z,102209.72
2022-10-03T05:01:08.934Z,102209.72
2022-10-03T05:06:23.814Z,102210.59
2022-10-03T05:11:39.713Z,102215.94
2022-10-03T05:16:47.965Z,102224.00
2022-10-03T05:22:17.279Z,102224.13
2022-10-03T05:27:19.877Z,102216.91
2022-10-03T05:32:45.872Z,102211.56
2022-10-03T05:38:03.233Z,102208.88
2022-10-03T05:43:27.336Z,102210.59
2022-10-03T05:48:52.572Z,102208.75
2022-10-03T05:54:27.204Z,102203.50
2022-10-03T05:59:35.570Z,102200.81
2022-10-03T06:05:11.614Z,102199.84
2022-10-03T06:10:26.145Z,102206.06
2022-10-03T06:15:43.090Z,102215.78
2022-10-03T06:21:15.870Z,102215.94
2022-10-03T06:26:45.899Z,102216.91
2022-10-03T06:31:53.725Z,102221.31
2022-10-03T06:37:17.090Z,102227.53
2022-10-03T06:42:50.132Z,102231.06
2022-10-03T06:48:35.142Z,102226.69
2022-10-03T06:53:37.296Z,102227.53
2022-10-03T06:58:54.597Z,102232.16
2022-10-03T07:04:27.198Z,102231.06
2022-10-03T07:09:45.920Z,102229.34
2022-10-03T07:15:16.377Z,102241.91
2022-10-03T07:20:45.713Z,102239.13
2022-10-03T07:26:12.371Z,102237.41
2022-10-03T07:31:27.665Z,102245.44
2022-10-03T07:37:00.556Z,102241.78
2022-10-03T07:42:25.942Z,102247.28
2022-10-03T07:47:39.891Z,102238.25
2022-10-03T07:52:52.636Z,102235.59
2022-10-03T07:58:13.391Z,102241.06
2022-10-03T08:03:37.339Z,102251.78
2022-10-03T08:09:13.440Z,102263.38
2022-10-03T08:14:43.260Z,102245.56
2022-10-03T08:20:12.984Z,102250.94
2022-10-03T08:25:48.865Z,102249.09
2022-10-03T08:31:09.192Z,102240.22
2022-10-03T08:36:35.920Z,102244.59
2022-10-03T08:42:16.197Z,102232.16
2022-10-03T08:47:39.728Z,102237.41
2022-10-03T08:53:12.424Z,102245.44
2022-10-03T08:58:38.324Z,102245.69
2022-10-03T09:03:52.282Z,102256.03
2022-10-03T09:09:00.350Z,102257.03
2022-10-03T09:14:46.164Z,102264.22
2022-10-03T09:20:09.164Z,102262.53
2022-10-03T09:25:18.593Z,102260.56
2022-10-03T09:30:46.771Z,102252.66
2022-10-03T09:36:30.191Z,102257.03
2022-10-03T09:41:59.305Z,102266.75
2022-10-03T09:47:42.856Z,102265.94
2022-10-03T09:53:30.454Z,102273.13
2022-10-03T09:58:38.438Z,102265.94
2022-10-03T10:03:40.588Z,102273.84
2022-10-03T10:08:42.492Z,102274.69
2022-10-03T10:14:07.899Z,102271.16
2022-10-03T10:19:18.729Z,102269.31
2022-10-03T10:24:46.816Z,102262.13
2022-10-03T10:30:15.701Z,102255.91
2022-10-03T10:35:59.705Z,102253.22
2022-10-03T10:41:32.092Z,102251.41
2022-10-03T10:47:06.321Z,102253.97
2022-10-03T10:52:40.538Z,102259.31
2022-10-03T10:58:16.276Z,102258.47
2022-10-03T11:03:33.204Z,102253.09
2022-10-03T11:09:07.214Z,102242.38
2022-10-03T11:14:59.797Z,102228.97
2022-10-03T11:20:26.523Z,102227.88
2022-10-03T11:25:58.109Z,102221.78
2022-10-03T11:31:28.881Z,102217.13
2022-10-03T11:36:50.601Z,102220.66
2022-10-03T11:41:55.459Z,102214.31
2022-10-03T11:47:31.099Z,102215.28
2022-10-03T11:52:42.428Z,102212.47
2022-10-03T11:57:49.374Z,102211.50
2022-10-03T12:03:00.484Z,102219.53
2022-10-03T12:08:30.126Z,102216.13
2022-10-03T12:13:32.242Z,102214.19
2022-10-03T12:18:42.363Z,102210.53
2022-10-03T12:23:59.168Z,102208.69
2022-10-03T12:29:02.291Z,102207.72
2022-10-03T12:34:32.663Z,102206.00
2022-10-03T12:39:51.638Z,102197.09
2022-10-03T12:45:00.947Z,102193.44
2022-10-03T12:50:18.047Z,102182.84
2022-10-03T12:55:29.278Z,102179.88
2022-10-03T13:00:45.821Z,102172.69
2022-10-03T13:06:07.129Z,102172.69
2022-10-03T13:11:36.237Z,102169.16
2022-10-03T13:16:41.429Z,102166.34
2022-10-03T13:21:46.336Z,102150.25
2022-10-03T13:26:53.147Z,102162.81
2022-10-03T13:32:24.115Z,102148.53
2022-10-03T13:37:35.806Z,102144.88
2022-10-03T13:42:40.635Z,102147.44
2022-10-03T13:47:48.487Z,102139.53
2022-10-03T13:53:15.018Z,102137.69
2022-10-03T13:58:17.570Z,102141.09
2022-10-03T14:03:45.631Z,102136.72
2022-10-03T14:09:06.010Z,102120.63
2022-10-03T14:14:29.592Z,102111.59
2022-10-03T14:19:54.435Z,102102.69
2022-10-03T14:25:24.312Z,102092.81
2022-10-03T14:31:05.057Z,102086.59
2022-10-03T14:36:29.586Z,102081.94
2022-10-03T14:41:55.512Z,102070.38
2022-10-03T14:47:14.703Z,102064.00
2022-10-03T14:52:47.241Z,102063.16
2022-10-03T14:58:10.341Z,102057.94
2022-10-03T15:03:17.232Z,102052.44
2022-10-03T15:08:20.625Z,102051.44
2022-10-03T15:13:23.973Z,102063.16
2022-10-03T15:18:26.511Z,102056.66
2022-10-03T15:23:34.216Z,102052.28
2022-10-03T15:28:47.578Z,102063.88
2022-10-03T15:33:52.002Z,102055.81
2022-10-03T15:39:00.739Z,102053.00
2022-10-03T15:44:05.907Z,102047.63
2022-10-03T15:49:17.985Z,102054.72
2022-10-03T15:54:27.646Z,102048.50
2022-10-03T15:59:43.724Z,102050.19
2022-10-03T16:04:47.164Z,102047.50
2022-10-03T16:09:56.080Z,102053.00
2022-10-03T16:15:22.805Z,102049.47
2022-10-03T16:20:48.242Z,102053.84
2022-10-03T16:25:55.795Z,102056.53
2022-10-03T16:31:11.800Z,102058.25
2022-10-03T16:36:19.414Z,102050.19
2022-10-03T16:41:25.399Z,102040.31
2022-10-03T16:46:32.795Z,102047.50
2022-10-03T16:51:42.775Z,102044.69
2022-10-03T16:56:51.298Z,102045.53
2022-10-03T17:02:00.984Z,102047.38
2022-10-03T17:07:16.798Z,102039.34
2022-10-03T17:12:25.895Z,102035.63
2022-10-03T17:17:49.121Z,102032.25
2022-10-03T17:23:00.414Z,102032.09
2022-10-03T17:28:06.591Z,102026.63
2022-10-03T17:33:18.763Z,102027.59
2022-10-03T17:38:48.874Z,102035.63
2022-10-03T17:43:59.366Z,102025.75
2022-10-03T17:49:13.553Z,102022.22
2022-10-03T17:54:20.717Z,102029.28
2022-10-03T17:59:30.744Z,102017.59
2022-10-03T18:04:39.682Z,102016.72
2022-10-03T18:09:48.318Z,102018.56
2022-10-03T18:14:56.080Z,102017.59
2022-10-03T18:20:21.006Z,102014.03
2022-10-03T18:26:18.805Z,102016.72
2022-10-03T18:31:25.284Z,102019.41
2022-10-03T18:36:44.279Z,102010.50
2022-10-03T18:41:49.409Z,102008.69
2022-10-03T18:47:07.402Z,102009.66
2022-10-03T18:52:28.567Z,102003.44
2022-10-03T18:57:33.294Z,102015.88
2022-10-03T19:02:48.541Z,102009.53
2022-10-03T19:08:11.506Z,102011.38
2022-10-03T19:13:30.788Z,102009.66
2022-10-03T19:18:45.414Z,102003.31
2022-10-03T19:24:13.173Z,101992.72
2022-10-03T19:29:28.086Z,101991.72
2022-10-03T19:34:41.660Z,101997.09
2022-10-03T19:39:44.177Z,101988.06
2022-10-03T19:44:46.253Z,101983.38
2022-10-03T19:50:02.027Z,102003.19
2022-10-03T19:55:13.884Z,101996.97
2022-10-03T20:00:15.933Z,102004.03
2022-10-03T20:05:20.986Z,101998.81
2022-10-03T20:10:48.253Z,101990.44
2022-10-03T20:15:52.063Z,101998.81
2022-10-03T20:20:57.280Z,102002.34
2022-10-03T20:26:16.045Z,102002.47
2022-10-03T20:31:27.955Z,102006.97
2022-10-03T20:36:33.403Z,102022.94
2022-10-03T20:41:59.674Z,102017.72
2022-10-03T20:47:26.262Z,102025.63
2022-10-03T20:52:28.607Z,102024.78
2022-10-03T20:57:56.455Z,102030.16
2022-10-03T21:03:16.902Z,102026.47
2022-10-03T21:08:40.692Z,102031.97
2022-10-03T21:13:56.000Z,102048.22
2022-10-03T21:19:04.178Z,102047.22
2022-10-03T21:24:30.723Z,102051.75
2022-10-03T21:29:36.286Z,102048.06
2022-10-03T21:34:56.730Z,102047.22
2022-10-03T21:40:26.302Z,102043.84
2022-10-03T21:45:40.996Z,102046.38
2022-10-03T21:50:51.779Z,102053.56
2022-10-03T21:56:17.235Z,102067.16
2022-10-03T22:01:21.843Z,102082.97
2022-10-03T22:06:32.653Z,102093.81
2022-10-03T22:11:44.289Z,102084.94
2022-10-03T22:17:13.805Z,102090.16
2022-10-03T22:22:33.682Z,102093.81
2022-10-03T22:27:43.742Z,102092.16
2022-10-03T22:33:08.014Z,102085.06
2022-10-03T22:38:11.175Z,102083.25
2022-10-03T22:43:14.799Z,102071.06
2022-10-03T22:48:28.434Z,102063.47
2022-10-03T22:53:35.542Z,102058.13
2022-10-03T22:58:37.652Z,102050.19
2022-10-03T23:03:39.718Z,102043.00
2022-10-03T23:08:58.464Z,102043.97
2022-10-03T23:14:13.563Z,102038.47
2022-10-03T23:19:43.887Z,102013.59
2022-10-03T23:25:02.412Z,102001.91
2022-10-03T23:30:13.626Z,101989.34
2022-10-03T23:35:36.009Z,101981.28
2022-10-03T23:40:45.678Z,101989.34
2022-10-03T23:45:50.718Z,101972.34
2022-10-03T23:50:55.768Z,101973.22
2022-10-03T23:56:01.472Z,101960.78
